Totowa Boro, New Jersey
Current Conditions -  °F | °C
As of 2:53 AM on Friday 28 Nov 2014 (Local Time) from KCDW Reporting Station
Few Clouds Few Clouds  
Wind Chill: 27°   Ceiling: Unl
Heat Index: 27°   Visibility: 10mi
Dew Point: 21°   Wind: 0mph
Humidity: 78%   Direction: NA
Pressure: 30.1"   Gusts: NA
Location:  40.904°N, 74.2218°W
Report Text: KCDW 280753Z AUTO 00000KT 10SM FEW039 M03/M06 A3010 RMK AO2 SLP198 T10281061 TSNO
Loading
Personal Weather Stations






























Interactive Weather Map New forecast layout! Learn more

10-Day Weather Forecast

Advertisements
Track Severe Weather on mobile